Time;durP1;ratioP1;P1;durP2;ratioP2;P2;SDS_P1;SDS_P2;PMS_P1;PMS_P2;Temp;Humidity;BMP_temperature;BMP_pressure;BME280_temperature;BME280_humidity;BME280_pressure;Samples;Min_cycle;Max_cycle;Signal;HPM_P1;HPM_P2
2023/05/09 00:00:44;;;;;;;6.10;5.60;;;;;;;;;;5111227;28;20230;-81
2023/05/09 00:03:13;;;;;;;7.50;5.93;;;;;;;;;;5110683;28;20203;-81
2023/05/09 00:05:40;;;;;;;6.87;6.27;;;;;;;;;;5111559;28;20226;-81
2023/05/09 00:08:08;;;;;;;6.43;5.83;;;;;;;;;;5110871;28;20315;-80
2023/05/09 00:10:35;;;;;;;6.43;5.47;;;;;;;;;;5111143;28;20214;-81
2023/05/09 00:13:01;;;;;;;5.50;5.10;;;;;;;;;;5111057;28;20207;-81
2023/05/09 00:15:29;;;;;;;6.13;5.40;;;;;;;;;;5111358;28;20199;-81
2023/05/09 00:17:56;;;;;;;6.33;5.80;;;;;;;;;;5110894;28;20227;-81
2023/05/09 00:20:22;;;;;;;6.47;5.87;;;;;;;;;;5110726;28;20291;-81
2023/05/09 00:22:49;;;;;;;6.13;5.53;;;;;;;;;;5111212;28;20204;-80
2023/05/09 00:25:17;;;;;;;6.37;5.73;;;;;;;;;;5110633;28;20286;-81
2023/05/09 00:27:44;;;;;;;6.80;6.07;;;;;;;;;;5110853;28;20206;-81
2023/05/09 00:30:11;;;;;;;5.83;5.27;;;;;;;;;;5110685;28;20290;-81
2023/05/09 00:32:40;;;;;;;6.30;5.33;;;;;;;;;;5111076;28;20233;-81
2023/05/09 00:35:07;;;;;;;6.57;5.97;;;;;;;;;;5110726;28;20670;-80
2023/05/09 00:37:34;;;;;;;8.00;6.13;;;;;;;;;;5111519;28;20203;-81
2023/05/09 00:40:02;;;;;;;6.93;5.80;;;;;;;;;;5110952;28;20716;-81
2023/05/09 00:42:30;;;;;;;5.90;5.40;;;;;;;;;;5115235;28;20203;-81
2023/05/09 00:44:57;;;;;;;4.97;4.57;;;;;;;;;;5114365;28;20674;-81
2023/05/09 00:47:24;;;;;;;6.03;5.23;;;;;;;;;;5115157;28;20204;-80
2023/05/09 00:49:51;;;;;;;4.87;4.40;;;;;;;;;;5114936;28;20205;-81
2023/05/09 00:52:21;;;;;;;6.67;4.90;;;;;;;;;;5114181;28;20648;-81
2023/05/09 00:54:48;;;;;;;4.93;4.13;;;;;;;;;;5114490;28;20232;-81
2023/05/09 00:57:15;;;;;;;6.67;4.33;;;;;;;;;;5114571;28;20693;-81
2023/05/09 00:59:43;;;;;;;8.10;6.03;;;;;;;;;;5114101;28;20223;-81
2023/05/09 01:02:10;;;;;;;5.20;4.70;;;;;;;;;;5112510;28;20647;-81
2023/05/09 01:04:37;;;;;;;6.97;6.27;;;;;;;;;;5114592;28;20199;-81
2023/05/09 01:07:09;;;;;;;7.43;6.07;;;;;;;;;;5114031;28;20195;-80
2023/05/09 01:09:39;;;;;;;6.53;5.93;;;;;;;;;;5114282;28;20266;-81
2023/05/09 01:12:13;;;;;;;6.77;4.87;;;;;;;;;;5114208;28;20206;-81
2023/05/09 01:14:47;;;;;;;7.60;5.93;;;;;;;;;;5114333;28;20211;-79
2023/05/09 01:17:20;;;;;;;8.50;5.30;;;;;;;;;;5114446;28;20208;-81
2023/05/09 01:19:55;;;;;;;6.10;5.50;;;;;;;;;;5113740;28;20207;-81
2023/05/09 01:22:23;;;;;;;5.37;4.90;;;;;;;;;;5113806;28;20264;-81
2023/05/09 01:25:06;;;;;;;6.50;5.77;;;;;;;;;;5113844;28;20203;-81
2023/05/09 01:27:43;;;;;;;7.63;5.80;;;;;;;;;;5102552;28;20757;-81
2023/05/09 01:30:12;;;;;;;6.00;5.40;;;;;;;;;;5113466;28;20195;-81
2023/05/09 01:32:39;;;;;;;5.17;4.67;;;;;;;;;;5113706;28;20211;-81
2023/05/09 01:35:07;;;;;;;5.17;4.77;;;;;;;;;;5113906;28;20207;-81
2023/05/09 01:37:36;;;;;;;6.97;6.27;;;;;;;;;;5113645;28;20623;-81
2023/05/09 01:40:08;;;;;;;9.90;9.00;;;;;;;;;;5113606;28;20295;-81
2023/05/09 01:42:38;;;;;;;12.10;11.10;;;;;;;;;;5113761;28;20196;-81
2023/05/09 01:45:06;;;;;;;8.07;6.30;;;;;;;;;;5113444;28;20203;-81
2023/05/09 01:47:34;;;;;;;6.10;5.57;;;;;;;;;;5113479;28;20199;-81
2023/05/09 01:50:02;;;;;;;6.73;5.97;;;;;;;;;;5113274;28;20677;-81
2023/05/09 01:52:29;;;;;;;6.20;5.60;;;;;;;;;;5112077;28;20207;-81
2023/05/09 01:54:56;;;;;;;5.47;4.97;;;;;;;;;;5113817;28;20192;-81
2023/05/09 01:57:23;;;;;;;6.57;5.97;;;;;;;;;;5113566;28;20252;-80
2023/05/09 01:59:51;;;;;;;5.27;4.77;;;;;;;;;;5113032;28;20210;-81
2023/05/09 02:02:18;;;;;;;7.70;5.00;;;;;;;;;;5112964;28;20702;-80
2023/05/09 02:04:46;;;;;;;5.40;4.97;;;;;;;;;;5113092;28;20225;-80
2023/05/09 02:07:13;;;;;;;6.20;4.70;;;;;;;;;;5112961;28;20257;-81
2023/05/09 02:09:40;;;;;;;5.40;4.90;;;;;;;;;;5113333;28;20195;-81
2023/05/09 02:12:07;;;;;;;6.60;5.80;;;;;;;;;;5113186;28;20658;-81
2023/05/09 02:14:34;;;;;;;7.87;5.23;;;;;;;;;;5113150;28;20204;-80
2023/05/09 02:17:05;;;;;;;5.30;4.80;;;;;;;;;;5113219;28;20204;-80
2023/05/09 02:19:33;;;;;;;5.03;4.63;;;;;;;;;;5113459;28;20227;-81
2023/05/09 02:22:01;;;;;;;4.97;4.57;;;;;;;;;;5112437;28;20223;-81
2023/05/09 02:24:28;;;;;;;5.23;4.63;;;;;;;;;;5112729;28;20260;-81
2023/05/09 02:26:55;;;;;;;5.67;4.30;;;;;;;;;;5112850;28;20686;-80
2023/05/09 02:29:26;;;;;;;4.87;4.47;;;;;;;;;;5112552;28;20196;-81
2023/05/09 02:31:53;;;;;;;5.70;4.97;;;;;;;;;;5112698;28;20195;-81
2023/05/09 02:34:20;;;;;;;6.33;5.13;;;;;;;;;;5112408;28;20256;-80
2023/05/09 02:36:47;;;;;;;5.23;4.73;;;;;;;;;;5112248;28;20590;-81
2023/05/09 02:39:15;;;;;;;5.17;4.67;;;;;;;;;;5112325;28;20236;-81
2023/05/09 02:41:48;;;;;;;4.90;4.50;;;;;;;;;;5112401;28;20227;-81
2023/05/09 02:44:14;;;;;;;4.77;4.33;;;;;;;;;;5112405;28;20203;-81
2023/05/09 02:46:41;;;;;;;9.50;4.63;;;;;;;;;;5112472;28;20196;-81
2023/05/09 02:49:08;;;;;;;4.47;4.10;;;;;;;;;;5112074;28;20206;-81
2023/05/09 02:51:35;;;;;;;6.70;4.43;;;;;;;;;;5112172;28;20626;-81
2023/05/09 02:54:02;;;;;;;6.17;4.27;;;;;;;;;;5112142;28;20240;-81
2023/05/09 02:56:30;;;;;;;6.00;4.33;;;;;;;;;;5112047;28;20204;-83
2023/05/09 02:58:57;;;;;;;4.27;3.97;;;;;;;;;;5112636;28;20200;-81
2023/05/09 03:01:23;;;;;;;5.17;4.67;;;;;;;;;;5098470;28;20227;-81
2023/05/09 03:03:50;;;;;;;8.30;6.37;;;;;;;;;;5112042;28;20207;-81
2023/05/09 03:06:17;;;;;;;7.60;5.33;;;;;;;;;;5112414;28;20206;-81
2023/05/09 03:08:44;;;;;;;5.57;4.47;;;;;;;;;;5111625;28;20199;-81
2023/05/09 03:11:11;;;;;;;5.20;4.73;;;;;;;;;;5112025;28;20199;-80
2023/05/09 03:13:39;;;;;;;5.30;4.80;;;;;;;;;;5111621;28;20195;-81
2023/05/09 03:16:06;;;;;;;6.53;3.97;;;;;;;;;;5112035;28;20204;-81
2023/05/09 03:18:33;;;;;;;4.57;4.17;;;;;;;;;;5111618;28;20265;-81
2023/05/09 03:21:00;;;;;;;6.17;4.80;;;;;;;;;;5111647;28;20717;-82
2023/05/09 03:23:27;;;;;;;5.30;3.97;;;;;;;;;;5111671;28;20212;-81
2023/05/09 03:25:53;;;;;;;4.30;3.90;;;;;;;;;;5111906;28;20294;-81
2023/05/09 03:28:20;;;;;;;6.87;4.37;;;;;;;;;;5111199;28;20203;-81
2023/05/09 03:30:49;;;;;;;4.30;3.87;;;;;;;;;;5111550;28;20207;-81
2023/05/09 03:33:15;;;;;;;8.03;4.60;;;;;;;;;;5111353;28;20195;-81
2023/05/09 03:35:42;;;;;;;3.70;3.40;;;;;;;;;;5111692;28;20199;-81
2023/05/09 03:38:09;;;;;;;9.07;4.47;;;;;;;;;;5111204;28;20207;-82
2023/05/09 03:40:38;;;;;;;4.83;4.33;;;;;;;;;;5111468;28;20693;-81
2023/05/09 03:43:05;;;;;;;4.07;3.77;;;;;;;;;;5111338;28;20195;-81
2023/05/09 03:45:32;;;;;;;5.50;4.00;;;;;;;;;;5112106;28;20196;-81
2023/05/09 03:48:01;;;;;;;5.43;4.93;;;;;;;;;;5111174;28;20269;-81
2023/05/09 03:50:29;;;;;;;5.67;5.13;;;;;;;;;;5111732;28;20208;-81
2023/05/09 03:52:56;;;;;;;6.83;6.00;;;;;;;;;;5111371;28;20845;-82
2023/05/09 03:55:23;;;;;;;6.47;5.17;;;;;;;;;;5111121;28;20558;-81
2023/05/09 03:57:50;;;;;;;7.83;5.33;;;;;;;;;;5111330;28;20204;-81
2023/05/09 04:00:18;;;;;;;5.43;5.00;;;;;;;;;;5110854;28;20727;-81
2023/05/09 04:02:44;;;;;;;5.93;5.10;;;;;;;;;;5111055;28;20203;-81
2023/05/09 04:05:13;;;;;;;7.20;6.50;;;;;;;;;;5111343;28;20203;-80
2023/05/09 04:07:40;;;;;;;7.63;6.83;;;;;;;;;;5111114;28;20199;-81
2023/05/09 04:10:08;;;;;;;8.10;6.57;;;;;;;;;;5110751;28;20689;-81
2023/05/09 04:12:35;;;;;;;5.93;4.50;;;;;;;;;;5111430;28;20208;-81
2023/05/09 04:15:02;;;;;;;28.70;19.10;;;;;;;;;;5111144;28;20199;-81
2023/05/09 04:17:29;;;;;;;15.27;11.97;;;;;;;;;;5115429;28;20203;-81
2023/05/09 04:19:56;;;;;;;9.37;8.27;;;;;;;;;;5115806;28;20207;-83
2023/05/09 04:22:24;;;;;;;9.90;8.90;;;;;;;;;;5115812;28;20237;-84
2023/05/09 04:24:51;;;;;;;11.43;7.93;;;;;;;;;;5115562;28;20596;-85
2023/05/09 04:27:18;;;;;;;11.23;10.03;;;;;;;;;;5115348;28;20212;-85
2023/05/09 04:29:44;;;;;;;7.47;6.87;;;;;;;;;;5115665;28;20211;-84
2023/05/09 04:32:11;;;;;;;9.03;8.13;;;;;;;;;;5115279;28;20203;-84
2023/05/09 04:34:38;;;;;;;9.90;8.57;;;;;;;;;;5115327;28;20191;-84
2023/05/09 04:37:05;;;;;;;7.30;6.70;;;;;;;;;;5102016;28;20596;-85
2023/05/09 04:39:33;;;;;;;7.87;6.40;;;;;;;;;;5115242;28;20227;-85
2023/05/09 04:42:00;;;;;;;6.70;6.10;;;;;;;;;;5115258;28;20253;-84
2023/05/09 04:44:27;;;;;;;5.60;5.10;;;;;;;;;;5115292;28;20286;-85
2023/05/09 04:46:54;;;;;;;8.60;7.90;;;;;;;;;;5115609;28;20738;-85
2023/05/09 04:49:21;;;;;;;10.03;8.63;;;;;;;;;;5114924;28;20294;-85
2023/05/09 04:51:48;;;;;;;7.67;6.97;;;;;;;;;;5115629;28;20199;-85
2023/05/09 04:54:15;;;;;;;7.17;6.47;;;;;;;;;;5115339;28;20211;-85
2023/05/09 04:56:43;;;;;;;8.40;7.37;;;;;;;;;;5115438;28;20592;-85
2023/05/09 04:59:10;;;;;;;7.77;6.97;;;;;;;;;;5115528;28;20207;-85
2023/05/09 05:01:36;;;;;;;8.67;6.83;;;;;;;;;;5115336;28;20265;-85
2023/05/09 05:04:06;;;;;;;7.77;6.97;;;;;;;;;;5115301;28;20210;-85
2023/05/09 05:06:32;;;;;;;8.03;7.03;;;;;;;;;;5115400;28;20232;-85
2023/05/09 05:08:59;;;;;;;30.03;18.77;;;;;;;;;;5114788;28;20762;-85
2023/05/09 05:11:26;;;;;;;36.30;23.00;;;;;;;;;;5114715;28;20204;-84
2023/05/09 05:13:54;;;;;;;9.97;9.07;;;;;;;;;;5115061;28;20200;-84
2023/05/09 05:16:21;;;;;;;11.87;10.77;;;;;;;;;;5115072;28;20318;-85
2023/05/09 05:18:48;;;;;;;28.43;25.33;;;;;;;;;;5114480;28;20204;-85
2023/05/09 05:21:15;;;;;;;23.27;20.93;;;;;;;;;;5114504;28;20235;-85
2023/05/09 05:23:42;;;;;;;42.60;38.30;;;;;;;;;;5114916;28;20199;-85
2023/05/09 05:26:09;;;;;;;26.33;23.30;;;;;;;;;;5115199;28;20207;-85
2023/05/09 05:28:37;;;;;;;16.17;14.57;;;;;;;;;;5113404;28;20203;-85
2023/05/09 05:31:05;;;;;;;13.70;11.30;;;;;;;;;;5114361;28;20226;-85
2023/05/09 05:33:31;;;;;;;9.97;7.90;;;;;;;;;;5114620;28;20229;-85
2023/05/09 05:35:58;;;;;;;8.10;7.40;;;;;;;;;;5114822;28;20203;-84
2023/05/09 05:38:25;;;;;;;9.27;7.10;;;;;;;;;;5114327;28;20234;-84
2023/05/09 05:40:52;;;;;;;8.17;7.07;;;;;;;;;;5114322;28;20269;-85
2023/05/09 05:43:19;;;;;;;9.53;7.57;;;;;;;;;;5114251;28;20208;-84
2023/05/09 05:45:45;;;;;;;9.17;7.90;;;;;;;;;;5114235;28;20219;-84
2023/05/09 05:48:14;;;;;;;9.60;8.53;;;;;;;;;;5114401;28;20204;-84
2023/05/09 05:50:40;;;;;;;11.30;10.30;;;;;;;;;;5113633;28;20203;-85
2023/05/09 05:53:07;;;;;;;9.30;8.40;;;;;;;;;;5113761;28;20208;-85
2023/05/09 05:55:34;;;;;;;12.30;10.30;;;;;;;;;;5114331;28;20651;-86
2023/05/09 05:58:01;;;;;;;10.60;9.37;;;;;;;;;;5114053;28;20211;-85
2023/05/09 06:00:28;;;;;;;23.27;15.40;;;;;;;;;;5114053;28;20256;-84
2023/05/09 06:02:55;;;;;;;44.03;26.93;;;;;;;;;;5113732;28;20336;-85
2023/05/09 06:05:23;;;;;;;25.07;22.47;;;;;;;;;;5113842;28;20199;-85
2023/05/09 06:07:49;;;;;;;12.37;11.30;;;;;;;;;;5100610;28;20582;-85
2023/05/09 06:10:16;;;;;;;8.40;7.57;;;;;;;;;;5113752;28;20208;-85
2023/05/09 06:12:43;;;;;;;7.33;6.63;;;;;;;;;;5113524;28;20213;-84
2023/05/09 06:15:10;;;;;;;6.27;5.77;;;;;;;;;;5113917;28;20230;-85
2023/05/09 06:17:37;;;;;;;8.27;5.70;;;;;;;;;;5113877;28;20200;-85
2023/05/09 06:20:05;;;;;;;5.97;5.47;;;;;;;;;;5113766;28;20202;-85
2023/05/09 06:22:33;;;;;;;6.13;5.63;;;;;;;;;;5113308;28;20223;-84
2023/05/09 06:25:00;;;;;;;6.10;5.50;;;;;;;;;;5113483;28;20220;-85
2023/05/09 06:27:27;;;;;;;8.07;5.50;;;;;;;;;;5113789;28;20279;-85
2023/05/09 06:29:54;;;;;;;6.20;5.43;;;;;;;;;;5113347;28;20213;-85
2023/05/09 06:32:20;;;;;;;6.83;6.13;;;;;;;;;;5113372;28;20296;-85
2023/05/09 06:34:47;;;;;;;5.13;4.70;;;;;;;;;;5113435;28;20624;-84
2023/05/09 06:37:14;;;;;;;5.77;5.20;;;;;;;;;;5113340;28;20605;-85
2023/05/09 06:39:43;;;;;;;6.53;6.00;;;;;;;;;;5112908;28;20693;-85
2023/05/09 06:42:09;;;;;;;6.67;5.40;;;;;;;;;;5113272;28;20284;-85
2023/05/09 06:44:39;;;;;;;6.40;5.80;;;;;;;;;;5112916;28;20673;-85
2023/05/09 06:47:06;;;;;;;7.73;5.53;;;;;;;;;;5113418;28;20195;-86
2023/05/09 06:49:33;;;;;;;5.57;5.17;;;;;;;;;;5112984;28;20195;-84
2023/05/09 06:52:00;;;;;;;7.07;5.20;;;;;;;;;;5113079;28;20207;-85
2023/05/09 06:54:26;;;;;;;5.73;5.17;;;;;;;;;;5112888;28;20726;-84
2023/05/09 06:56:55;;;;;;;6.83;4.83;;;;;;;;;;5112806;28;20260;-85
2023/05/09 07:40:27;;;;;;;7.90;6.30;;;;;;;;;;5117166;27;20918;-81
2023/05/09 07:42:55;;;;;;;9.87;8.60;;;;;;;;;;5101587;28;20266;-81
2023/05/09 07:45:22;;;;;;;5.87;5.27;;;;;;;;;;5099460;28;20196;-81
2023/05/09 07:47:51;;;;;;;6.63;6.03;;;;;;;;;;5090367;28;20204;-80
2023/05/09 07:50:18;;;;;;;7.70;6.87;;;;;;;;;;5099618;28;20204;-81
2023/05/09 07:52:45;;;;;;;7.83;6.80;;;;;;;;;;5101042;28;20227;-81
2023/05/09 07:55:12;;;;;;;6.57;5.97;;;;;;;;;;5087444;28;20201;-81
2023/05/09 07:57:40;;;;;;;6.80;6.20;;;;;;;;;;5103945;28;20208;-81
2023/05/09 08:00:09;;;;;;;6.00;5.50;;;;;;;;;;5107893;28;20196;-80
2023/05/09 08:02:36;;;;;;;5.90;5.27;;;;;;;;;;5105024;28;20291;-80
2023/05/09 08:05:03;;;;;;;5.93;5.13;;;;;;;;;;5100514;28;20698;-80
2023/05/09 08:07:30;;;;;;;6.93;6.23;;;;;;;;;;5097195;28;20689;-80
2023/05/09 08:09:56;;;;;;;7.77;6.97;;;;;;;;;;5107450;28;20288;-81
2023/05/09 08:12:23;;;;;;;6.47;5.87;;;;;;;;;;5107968;28;20196;-81
2023/05/09 08:14:51;;;;;;;6.93;6.33;;;;;;;;;;5093707;28;20219;-80
2023/05/09 08:17:18;;;;;;;7.50;6.30;;;;;;;;;;5107561;28;20196;-80
2023/05/09 08:19:45;;;;;;;7.37;6.57;;;;;;;;;;5103275;28;20621;-81
2023/05/09 08:22:17;;;;;;;7.83;6.73;;;;;;;;;;5098453;28;20250;-81
2023/05/09 08:24:44;;;;;;;7.20;5.87;;;;;;;;;;5087676;28;20623;-81
2023/05/09 08:27:12;;;;;;;7.90;7.27;;;;;;;;;;5099790;28;20207;-81
2023/05/09 08:29:39;;;;;;;7.40;6.70;;;;;;;;;;5093013;28;20230;-81
2023/05/09 08:32:07;;;;;;;7.70;7.00;;;;;;;;;;5106813;28;20291;-81
2023/05/09 08:34:35;;;;;;;6.20;5.60;;;;;;;;;;5087899;28;20212;-80
2023/05/09 08:37:02;;;;;;;6.83;5.20;;;;;;;;;;5099968;28;20204;-80
2023/05/09 08:39:29;;;;;;;6.70;6.07;;;;;;;;;;5084718;28;20229;-80
2023/05/09 08:41:58;;;;;;;6.67;6.07;;;;;;;;;;5073070;28;20604;-81
2023/05/09 08:44:25;;;;;;;6.50;5.90;;;;;;;;;;5092747;28;20200;-80
2023/05/09 08:46:55;;;;;;;5.97;5.47;;;;;;;;;;5093250;28;20211;-81
2023/05/09 08:49:24;;;;;;;6.53;5.87;;;;;;;;;;5086646;28;20221;-81
2023/05/09 08:51:52;;;;;;;6.47;5.97;;;;;;;;;;5073337;28;20213;-81
2023/05/09 08:54:19;;;;;;;5.97;5.47;;;;;;;;;;5086139;28;20217;-81
2023/05/09 08:56:46;;;;;;;4.93;4.53;;;;;;;;;;5073366;28;20231;-81
2023/05/09 08:59:14;;;;;;;5.10;4.70;;;;;;;;;;5085634;28;20663;-83
2023/05/09 09:01:41;;;;;;;5.40;4.90;;;;;;;;;;5087565;28;20201;-81
2023/05/09 09:04:10;;;;;;;5.10;4.60;;;;;;;;;;5084979;28;20217;-81
2023/05/09 09:06:39;;;;;;;4.53;4.13;;;;;;;;;;5086328;28;20303;-81
2023/05/09 09:09:07;;;;;;;5.20;4.70;;;;;;;;;;5081276;28;20242;-81
2023/05/09 09:11:36;;;;;;;4.80;4.40;;;;;;;;;;5090879;28;20208;-82
2023/05/09 09:14:06;;;;;;;4.43;4.03;;;;;;;;;;5081714;28;20200;-82
2023/05/09 09:16:34;;;;;;;4.33;4.03;;;;;;;;;;5092575;28;20204;-82
2023/05/09 09:19:01;;;;;;;3.93;3.63;;;;;;;;;;5093200;28;20584;-82
2023/05/09 09:21:28;;;;;;;3.93;3.63;;;;;;;;;;5079166;28;20204;-82
2023/05/09 09:23:58;;;;;;;4.30;4.00;;;;;;;;;;5093100;28;20203;-82
2023/05/09 09:26:28;;;;;;;3.27;3.07;;;;;;;;;;5092529;28;20196;-83
2023/05/09 09:28:55;;;;;;;4.67;4.27;;;;;;;;;;5081404;28;20237;-82
2023/05/09 09:31:23;;;;;;;4.33;3.93;;;;;;;;;;5077702;28;20199;-82
2023/05/09 09:33:52;;;;;;;4.33;3.80;;;;;;;;;;5079683;28;20211;-82
2023/05/09 09:36:27;;;;;;;5.13;4.40;;;;;;;;;;5078510;28;20658;-82
2023/05/09 09:39:00;;;;;;;4.73;4.33;;;;;;;;;;5091896;28;20251;-83
2023/05/09 09:41:33;;;;;;;5.73;4.03;;;;;;;;;;5092185;28;20292;-82
2023/05/09 09:44:06;;;;;;;3.97;3.67;;;;;;;;;;5091552;28;20208;-82
2023/05/09 09:46:41;;;;;;;3.30;3.00;;;;;;;;;;5092645;28;20204;-81
2023/05/09 09:49:09;;;;;;;3.30;3.00;;;;;;;;;;5087339;28;20216;-81
2023/05/09 09:51:37;;;;;;;4.73;4.23;;;;;;;;;;5071105;28;20251;-81
2023/05/09 09:54:06;;;;;;;4.03;3.70;;;;;;;;;;5084970;28;20208;-81
2023/05/09 09:56:41;;;;;;;3.60;3.30;;;;;;;;;;5084146;28;20265;-81
2023/05/09 09:59:12;;;;;;;4.20;3.50;;;;;;;;;;5078158;28;20213;-82
2023/05/09 10:02:00;;;;;;;4.37;3.60;;;;;;;;;;5091483;28;20209;-81
2023/05/09 10:04:30;;;;;;;4.70;4.03;;;;;;;;;;5071773;28;20602;-81
2023/05/09 10:06:58;;;;;;;5.00;4.50;;;;;;;;;;5076251;28;20246;-81
2023/05/09 10:09:27;;;;;;;4.70;4.17;;;;;;;;;;5091873;28;20232;-81
2023/05/09 10:11:55;;;;;;;5.50;5.03;;;;;;;;;;5091442;28;20201;-81
2023/05/09 10:14:23;;;;;;;5.37;4.97;;;;;;;;;;5091554;28;20215;-81
2023/05/09 10:16:54;;;;;;;5.27;4.77;;;;;;;;;;5077953;28;20204;-81
2023/05/09 10:19:22;;;;;;;7.03;5.60;;;;;;;;;;5078862;28;20204;-81
2023/05/09 10:21:51;;;;;;;6.23;5.63;;;;;;;;;;5084594;28;20690;-81
2023/05/09 10:24:22;;;;;;;9.47;6.17;;;;;;;;;;5084164;28;20288;-82
2023/05/09 10:26:53;;;;;;;8.63;6.10;;;;;;;;;;5091804;28;20216;-81
2023/05/09 10:29:21;;;;;;;7.10;6.40;;;;;;;;;;5075982;28;20733;-81
2023/05/09 10:31:52;;;;;;;6.60;6.00;;;;;;;;;;5071557;28;20213;-81
2023/05/09 10:34:21;;;;;;;6.67;5.90;;;;;;;;;;5084416;28;20200;-81
2023/05/09 10:36:49;;;;;;;8.07;6.53;;;;;;;;;;5080093;28;20203;-81
2023/05/09 10:39:16;;;;;;;6.70;6.10;;;;;;;;;;5074274;28;20282;-81
2023/05/09 10:41:43;;;;;;;6.27;5.73;;;;;;;;;;5071271;28;20580;-81
2023/05/09 10:44:11;;;;;;;6.57;5.93;;;;;;;;;;5084722;28;20205;-80
2023/05/09 10:46:39;;;;;;;6.47;5.87;;;;;;;;;;5082034;28;20208;-81
2023/05/09 10:49:06;;;;;;;5.67;5.17;;;;;;;;;;5077105;28;20303;-79
2023/05/09 10:51:33;;;;;;;5.73;4.87;;;;;;;;;;5091124;28;20205;-80
2023/05/09 10:54:00;;;;;;;6.43;5.83;;;;;;;;;;5091159;28;20626;-81
2023/05/09 10:56:30;;;;;;;8.23;5.37;;;;;;;;;;5078968;28;20296;-81
2023/05/09 10:58:57;;;;;;;6.13;5.53;;;;;;;;;;5083654;28;20395;-80
2023/05/09 11:01:35;;;;;;;5.50;5.00;;;;;;;;;;5083527;28;20204;-80
2023/05/09 11:04:09;;;;;;;7.17;6.00;;;;;;;;;;5070487;28;20288;-80
2023/05/09 11:06:49;;;;;;;7.20;6.57;;;;;;;;;;5070623;28;20201;-81
2023/05/09 11:09:25;;;;;;;7.23;5.90;;;;;;;;;;5070697;28;20225;-81
2023/05/09 11:11:52;;;;;;;6.83;5.57;;;;;;;;;;5076027;28;20674;-80
2023/05/09 11:14:29;;;;;;;7.63;6.07;;;;;;;;;;5078017;28;20283;-80
2023/05/09 11:16:59;;;;;;;7.37;4.53;;;;;;;;;;5070420;28;20287;-80
2023/05/09 11:19:53;;;;;;;5.73;5.27;;;;;;;;;;5070191;28;20291;-80
2023/05/09 11:22:21;;;;;;;5.80;5.20;;;;;;;;;;5083059;28;20208;-80
2023/05/09 11:24:54;;;;;;;7.17;5.07;;;;;;;;;;5090087;28;20678;-80
2023/05/09 11:27:21;;;;;;;8.40;5.13;;;;;;;;;;5090296;28;20232;-81
2023/05/09 11:29:51;;;;;;;5.90;4.50;;;;;;;;;;5077483;28;20227;-80
2023/05/09 11:32:20;;;;;;;7.33;5.70;;;;;;;;;;5090475;28;20207;-80
2023/05/09 11:34:47;;;;;;;5.17;4.67;;;;;;;;;;5090426;28;20585;-81
2023/05/09 11:37:18;;;;;;;5.40;4.90;;;;;;;;;;5090216;28;20589;-81
2023/05/09 11:40:03;;;;;;;5.77;4.90;;;;;;;;;;5077532;28;20730;-81
2023/05/09 11:42:31;;;;;;;5.30;4.90;;;;;;;;;;5073271;28;20264;-80
2023/05/09 11:44:59;;;;;;;5.63;5.13;;;;;;;;;;5080572;28;20570;-81
2023/05/09 11:47:29;;;;;;;5.17;4.67;;;;;;;;;;5077137;28;20196;-80
2023/05/09 11:49:56;;;;;;;5.30;4.80;;;;;;;;;;5078514;28;20234;-80
2023/05/09 11:52:23;;;;;;;6.40;5.00;;;;;;;;;;5083984;28;20201;-80
2023/05/09 11:54:49;;;;;;;5.17;4.77;;;;;;;;;;5070465;28;20205;-81
2023/05/09 11:57:17;;;;;;;5.93;4.40;;;;;;;;;;5070043;28;20197;-81
2023/05/09 11:59:44;;;;;;;5.47;4.97;;;;;;;;;;5070178;28;20201;-80
2023/05/09 12:02:11;;;;;;;4.90;4.33;;;;;;;;;;5070438;28;20212;-81
2023/05/09 12:04:40;;;;;;;4.70;4.30;;;;;;;;;;5070006;28;20193;-80
2023/05/09 12:07:06;;;;;;;5.13;4.43;;;;;;;;;;5083495;28;20213;-80
2023/05/09 12:09:36;;;;;;;5.07;4.57;;;;;;;;;;5082904;28;20225;-80
2023/05/09 12:12:09;;;;;;;7.27;6.00;;;;;;;;;;5083264;28;20286;-80
2023/05/09 12:14:36;;;;;;;26.30;17.37;;;;;;;;;;5083848;28;20296;-80
2023/05/09 12:17:03;;;;;;;97.87;55.80;;;;;;;;;;5081855;28;20603;-80
2023/05/09 12:19:30;;;;;;;30.97;26.20;;;;;;;;;;5079157;28;20271;-80
2023/05/09 12:21:58;;;;;;;11.03;9.90;;;;;;;;;;5073880;28;20206;-80
2023/05/09 12:24:26;;;;;;;8.43;7.57;;;;;;;;;;5073483;28;20216;-80
2023/05/09 12:26:53;;;;;;;7.63;6.93;;;;;;;;;;5083086;28;20689;-81
2023/05/09 12:29:20;;;;;;;6.23;5.20;;;;;;;;;;5093575;28;20188;-81
2023/05/09 12:31:47;;;;;;;10.00;8.93;;;;;;;;;;5084380;28;20700;-81
2023/05/09 12:34:15;;;;;;;21.47;16.77;;;;;;;;;;5086755;28;20532;-80
2023/05/09 12:36:49;;;;;;;16.47;14.77;;;;;;;;;;5073462;28;20280;-80
2023/05/09 12:39:20;;;;;;;12.20;10.93;;;;;;;;;;5077487;28;20226;-80
2023/05/09 12:41:47;;;;;;;10.13;9.10;;;;;;;;;;5082861;28;20657;-80
2023/05/09 12:44:21;;;;;;;9.33;7.20;;;;;;;;;;5073467;28;20201;-81
2023/05/09 12:46:58;;;;;;;7.17;6.47;;;;;;;;;;5072974;28;20698;-81
2023/05/09 12:49:26;;;;;;;8.00;5.80;;;;;;;;;;5079852;28;20245;-80
2023/05/09 12:51:54;;;;;;;8.40;5.27;;;;;;;;;;5093291;28;20204;-79
2023/05/09 12:54:23;;;;;;;7.67;6.90;;;;;;;;;;5085829;28;20201;-81
2023/05/09 12:56:52;;;;;;;7.17;5.83;;;;;;;;;;5086280;28;20209;-80
2023/05/09 12:59:22;;;;;;;6.43;5.83;;;;;;;;;;5072890;28;20205;-80
2023/05/09 13:01:53;;;;;;;5.97;4.97;;;;;;;;;;5086759;28;20290;-81
2023/05/09 13:04:21;;;;;;;5.43;5.00;;;;;;;;;;5082625;28;20649;-81
2023/05/09 13:06:49;;;;;;;8.07;7.27;;;;;;;;;;5089646;28;20276;-81
2023/05/09 13:09:16;;;;;;;7.87;7.13;;;;;;;;;;5083093;28;20250;-80
2023/05/09 13:11:45;;;;;;;5.73;5.27;;;;;;;;;;5079591;28;20223;-80
2023/05/09 13:14:12;;;;;;;7.27;6.67;;;;;;;;;;5081235;28;20295;-80
2023/05/09 13:47:00;;;;;;;9.93;8.57;;;;;;;;;;5064421;28;20979;-81
2023/05/09 13:49:27;;;;;;;7.63;6.40;;;;;;;;;;5063908;28;20288;-80
2023/05/09 13:51:54;;;;;;;7.47;5.80;;;;;;;;;;5064613;28;20291;-81
2023/05/09 13:54:21;;;;;;;5.97;5.40;;;;;;;;;;5063876;28;20204;-81
2023/05/09 13:56:50;;;;;;;5.60;4.80;;;;;;;;;;5064934;28;20204;-81
2023/05/09 13:59:16;;;;;;;7.37;5.47;;;;;;;;;;5063745;28;20209;-81
2023/05/09 14:01:43;;;;;;;6.20;5.60;;;;;;;;;;5064229;28;20268;-81
2023/05/09 14:04:12;;;;;;;14.13;11.07;;;;;;;;;;5064044;28;20208;-81
2023/05/09 14:06:39;;;;;;;17.77;15.93;;;;;;;;;;5064128;28;20292;-81
2023/05/09 14:09:06;;;;;;;7.90;6.77;;;;;;;;;;5063480;28;20197;-80
2023/05/09 14:11:32;;;;;;;10.70;9.37;;;;;;;;;;5063601;28;20205;-81
2023/05/09 14:13:59;;;;;;;8.77;7.37;;;;;;;;;;5064086;28;20202;-81
2023/05/09 14:16:26;;;;;;;9.13;5.20;;;;;;;;;;5064312;28;20233;-81
2023/05/09 14:18:52;;;;;;;7.50;6.53;;;;;;;;;;5063967;28;20212;-81
2023/05/09 14:21:21;;;;;;;6.10;5.50;;;;;;;;;;5063437;28;20212;-81
2023/05/09 14:23:48;;;;;;;10.27;9.27;;;;;;;;;;5064218;28;20296;-81
2023/05/09 14:26:15;;;;;;;9.20;8.30;;;;;;;;;;5063575;28;20210;-81
2023/05/09 14:28:44;;;;;;;6.23;5.63;;;;;;;;;;5064116;28;20693;-80
2023/05/09 14:31:12;;;;;;;9.77;8.13;;;;;;;;;;5060482;28;20195;-80
2023/05/09 14:33:39;;;;;;;8.00;6.00;;;;;;;;;;5044102;28;20207;-81
2023/05/09 14:36:07;;;;;;;6.87;6.27;;;;;;;;;;5060849;28;20225;-80
2023/05/09 14:38:35;;;;;;;7.20;6.50;;;;;;;;;;5063264;28;20206;-80
2023/05/09 14:41:02;;;;;;;6.13;5.63;;;;;;;;;;5063264;28;20709;-81
2023/05/09 14:43:29;;;;;;;9.80;8.20;;;;;;;;;;5064023;28;20205;-82
2023/05/09 14:45:58;;;;;;;10.00;8.40;;;;;;;;;;5061120;28;20221;-80
2023/05/09 14:48:25;;;;;;;9.70;8.80;;;;;;;;;;5050224;28;20258;-79
2023/05/09 14:50:55;;;;;;;11.33;10.13;;;;;;;;;;5050318;28;20210;-79
2023/05/09 14:53:22;;;;;;;10.33;9.23;;;;;;;;;;5050378;28;20202;-79
2023/05/09 14:55:52;;;;;;;17.93;14.90;;;;;;;;;;5049551;28;20278;-80
2023/05/09 14:58:19;;;;;;;11.17;9.47;;;;;;;;;;5050520;28;20260;-80
2023/05/09 15:00:46;;;;;;;11.50;10.40;;;;;;;;;;5023868;28;20202;-79
2023/05/09 15:03:13;;;;;;;8.57;7.43;;;;;;;;;;5049556;28;20680;-80
2023/05/09 15:05:43;;;;;;;17.93;11.57;;;;;;;;;;5050127;28;20206;-79
2023/05/09 15:08:10;;;;;;;35.40;22.00;;;;;;;;;;5048792;28;20688;-80
2023/05/09 15:10:37;;;;;;;28.07;19.67;;;;;;;;;;5036126;28;20633;-79
2023/05/09 15:13:05;;;;;;;57.77;33.47;;;;;;;;;;5030125;28;20206;-79
2023/05/09 15:15:31;;;;;;;38.63;27.20;;;;;;;;;;5029434;28;20222;-80
2023/05/09 15:17:59;;;;;;;21.70;19.50;;;;;;;;;;5030332;28;20195;-80
2023/05/09 15:20:26;;;;;;;11.70;10.13;;;;;;;;;;5029876;28;20214;-79
2023/05/09 15:22:53;;;;;;;15.93;14.33;;;;;;;;;;5029856;28;20214;-80
2023/05/09 15:25:22;;;;;;;17.87;16.27;;;;;;;;;;5029619;28;20291;-80
2023/05/09 15:27:50;;;;;;;13.00;9.47;;;;;;;;;;5029573;28;20637;-79
2023/05/09 15:30:18;;;;;;;10.17;9.27;;;;;;;;;;5029664;28;20259;-80
2023/05/09 15:32:45;;;;;;;11.43;10.37;;;;;;;;;;5030048;28;20207;-80
2023/05/09 15:35:14;;;;;;;12.43;8.37;;;;;;;;;;5029602;28;20334;-81
2023/05/09 15:37:43;;;;;;;11.27;10.20;;;;;;;;;;5030402;28;20210;-80
2023/05/09 15:40:11;;;;;;;13.67;12.40;;;;;;;;;;5029864;28;20738;-80
2023/05/09 15:42:38;;;;;;;10.97;9.97;;;;;;;;;;5029777;28;20671;-80
2023/05/09 15:45:06;;;;;;;10.03;9.13;;;;;;;;;;5029313;28;20692;-80
2023/05/09 15:47:34;;;;;;;10.23;8.63;;;;;;;;;;5029171;28;20259;-80
2023/05/09 15:50:01;;;;;;;9.90;8.33;;;;;;;;;;5030149;28;20564;-80
2023/05/09 15:52:28;;;;;;;9.97;8.97;;;;;;;;;;5029391;28;20214;-80
2023/05/09 15:54:54;;;;;;;12.37;11.27;;;;;;;;;;5029552;28;20214;-80